createdAt,value
2022-08-05T00:02:07.992Z,100438.38
2022-08-05T00:04:38.399Z,100427.75
2022-08-05T00:07:27.063Z,100435.03
2022-08-05T00:09:53.362Z,100438.69
2022-08-05T00:12:21.337Z,100420.09
2022-08-05T00:14:48.342Z,100434.03
2022-08-05T00:17:19.591Z,100440.78
2022-08-05T00:20:02.599Z,100439.12
2022-08-05T00:22:29.877Z,100435.28
2022-08-05T00:24:57.293Z,100439.25
2022-08-05T00:27:28.514Z,100425.25
2022-08-05T00:30:04.963Z,100434.88
2022-08-05T00:32:37.802Z,100432.69
2022-08-05T00:35:07.862Z,100432.00
2022-08-05T00:37:35.612Z,100433.31
2022-08-05T00:40:28.179Z,100430.50
2022-08-05T00:42:59.364Z,100436.09
2022-08-05T00:45:38.046Z,100437.25
2022-08-05T00:48:07.031Z,100432.12
2022-08-05T00:50:34.250Z,100418.09
2022-08-05T00:53:00.577Z,100422.44
2022-08-05T00:55:42.217Z,100432.06
2022-08-05T00:58:13.861Z,100411.78
2022-08-05T01:00:42.213Z,100417.34
2022-08-05T01:03:10.309Z,100409.25
2022-08-05T01:05:40.311Z,100405.56
2022-08-05T01:08:39.826Z,100419.16
2022-08-05T01:11:07.499Z,100428.16
2022-08-05T01:13:58.765Z,100425.81
2022-08-05T01:16:34.717Z,100418.06
2022-08-05T01:19:11.111Z,100413.13
2022-08-05T01:22:05.368Z,100400.38
2022-08-05T01:24:50.089Z,100414.00
2022-08-05T01:27:50.549Z,100416.00
2022-08-05T01:30:34.675Z,100410.97
2022-08-05T01:33:03.861Z,100410.25
2022-08-05T01:35:50.836Z,100397.44
2022-08-05T01:38:24.737Z,100401.75
2022-08-05T01:40:54.542Z,100406.09
2022-08-05T01:43:24.153Z,100421.25
2022-08-05T01:45:54.089Z,100417.66
2022-08-05T01:48:25.375Z,100420.78
2022-08-05T01:50:52.490Z,100419.41
2022-08-05T01:53:54.500Z,100420.84
2022-08-05T01:56:09.656Z,100424.13
2022-08-05T01:58:41.036Z,100428.38
2022-08-05T02:01:24.553Z,100411.75
2022-08-05T02:03:53.331Z,100413.31
2022-08-05T02:06:37.355Z,100426.38
2022-08-05T02:09:05.729Z,100405.59
2022-08-05T02:11:52.558Z,100423.84
2022-08-05T02:14:28.054Z,100421.84
2022-08-05T02:16:55.612Z,100410.44
2022-08-05T02:19:28.330Z,100410.22
2022-08-05T02:22:04.331Z,100410.81
2022-08-05T02:24:37.551Z,100406.78
2022-08-05T02:27:09.870Z,100417.84
2022-08-05T02:29:58.921Z,100413.97
2022-08-05T02:32:29.428Z,100393.31
2022-08-05T02:35:13.353Z,100398.91
2022-08-05T02:37:47.723Z,100409.87
2022-08-05T02:40:21.481Z,100404.44
2022-08-05T02:42:52.774Z,100422.00
2022-08-05T02:45:20.189Z,100418.81
2022-08-05T02:48:07.458Z,100414.66
2022-08-05T02:50:38.985Z,100414.94
2022-08-05T02:53:15.955Z,100406.06
2022-08-05T02:55:53.764Z,100419.56
2022-08-05T02:58:23.233Z,100414.56
2022-08-05T03:00:55.618Z,100410.13
2022-08-05T03:03:23.613Z,100418.03
2022-08-05T03:06:56.395Z,100397.78
2022-08-05T03:08:39.098Z,100414.69
2022-08-05T03:11:54.861Z,100418.34
2022-08-05T03:14:24.337Z,100409.16
2022-08-05T03:16:53.482Z,100410.13
2022-08-05T03:19:34.579Z,100410.72
2022-08-05T03:22:04.747Z,100400.31
2022-08-05T03:24:44.780Z,100389.66
2022-08-05T03:27:14.316Z,100383.28
2022-08-05T03:29:44.837Z,100410.72
2022-08-05T03:32:31.059Z,100410.44
2022-08-05T03:34:57.801Z,100411.72
2022-08-05T03:37:24.945Z,100404.75
2022-08-05T03:39:58.746Z,100399.63
2022-08-05T03:42:29.074Z,100418.66
2022-08-05T03:44:56.007Z,100409.06
2022-08-05T03:47:23.584Z,100401.44
2022-08-05T03:49:51.282Z,100413.66
2022-08-05T03:52:50.258Z,100403.37
2022-08-05T03:56:03.748Z,100402.78
2022-08-05T03:58:05.667Z,100409.25
2022-08-05T04:00:32.498Z,100403.31
2022-08-05T04:03:00.536Z,100412.97
2022-08-05T04:05:33.753Z,100414.81
2022-08-05T04:08:14.585Z,100413.97
2022-08-05T04:10:50.189Z,100423.37
2022-08-05T04:13:18.583Z,100418.97
2022-08-05T04:15:52.599Z,100408.62
2022-08-05T04:18:30.285Z,100416.19
2022-08-05T04:20:57.661Z,100418.16
2022-08-05T04:24:04.960Z,100423.47
2022-08-05T04:26:14.285Z,100424.13
2022-08-05T04:28:51.235Z,100423.00
2022-08-05T04:31:19.894Z,100421.78
2022-08-05T04:34:17.119Z,100421.69
2022-08-05T04:36:45.892Z,100417.59
2022-08-05T04:39:15.926Z,100414.00
2022-08-05T04:41:42.537Z,100419.87
2022-08-05T04:44:10.693Z,100422.22
2022-08-05T04:46:38.491Z,100426.22
2022-08-05T04:49:12.139Z,100430.78
2022-08-05T04:51:41.027Z,100406.16
2022-08-05T04:54:09.340Z,100424.69
2022-08-05T04:56:37.338Z,100423.59
2022-08-05T04:59:21.667Z,100424.47
2022-08-05T05:02:35.198Z,100423.84
2022-08-05T05:04:38.382Z,100401.09
2022-08-05T05:07:11.613Z,100395.03
2022-08-05T05:09:42.283Z,100420.03
2022-08-05T05:12:11.534Z,100414.38
2022-08-05T05:14:38.073Z,100417.78
2022-08-05T05:17:22.734Z,100413.34
2022-08-05T05:19:50.432Z,100413.69
2022-08-05T05:22:23.591Z,100407.75
2022-08-05T05:24:56.916Z,100415.09
2022-08-05T05:27:41.600Z,100414.09
2022-08-05T05:30:30.659Z,100418.09
2022-08-05T05:33:14.104Z,100416.25
2022-08-05T05:35:43.621Z,100418.91
2022-08-05T05:38:13.374Z,100402.00
2022-08-05T05:40:43.846Z,100422.78
2022-08-05T05:43:27.806Z,100406.97
2022-08-05T05:46:05.085Z,100419.44
2022-08-05T05:48:32.476Z,100420.69
2022-08-05T05:51:14.753Z,100410.84
2022-08-05T05:53:54.665Z,100428.31
2022-08-05T05:56:32.825Z,100409.94
2022-08-05T05:59:06.695Z,100425.47
2022-08-05T06:01:37.495Z,100424.44
2022-08-05T06:04:11.871Z,100430.50
2022-08-05T06:06:42.887Z,100430.94
2022-08-05T06:09:16.603Z,100433.81
2022-08-05T06:11:59.259Z,100431.19
2022-08-05T06:14:27.985Z,100428.94
2022-08-05T06:16:55.245Z,100419.03
2022-08-05T06:19:32.916Z,100429.94
2022-08-05T06:22:03.108Z,100428.97
2022-08-05T06:24:29.660Z,100421.78
2022-08-05T06:26:57.428Z,100427.31
2022-08-05T06:29:46.948Z,100441.94
2022-08-05T06:32:25.037Z,100440.44
2022-08-05T06:34:56.838Z,100430.41
2022-08-05T06:37:52.276Z,100439.66
2022-08-05T06:40:11.898Z,100435.28
2022-08-05T06:42:39.885Z,100435.88
2022-08-05T06:45:08.909Z,100440.16
2022-08-05T06:48:37.245Z,100443.25
2022-08-05T06:50:22.949Z,100440.81
2022-08-05T06:53:03.971Z,100425.84
2022-08-05T06:55:36.836Z,100442.78
2022-08-05T06:58:19.938Z,100444.63
2022-08-05T07:00:50.928Z,100433.66
2022-08-05T07:03:17.858Z,100435.41
2022-08-05T07:05:44.715Z,100440.59
2022-08-05T07:08:12.771Z,100450.22
2022-08-05T07:10:53.379Z,100435.25
2022-08-05T07:13:57.628Z,100421.97
2022-08-05T07:17:56.727Z,100428.91
2022-08-05T07:20:16.898Z,100445.94
2022-08-05T07:22:17.587Z,100444.97
2022-08-05T07:24:52.650Z,100439.44
2022-08-05T07:27:20.335Z,100443.22
2022-08-05T07:30:22.250Z,100439.63
2022-08-05T07:32:38.695Z,100438.66
2022-08-05T07:36:04.525Z,100441.03
2022-08-05T07:37:55.946Z,100439.19
2022-08-05T07:40:27.111Z,100434.38
2022-08-05T07:42:59.461Z,100436.25
2022-08-05T07:45:58.014Z,100439.94
2022-08-05T07:49:00.564Z,100435.66
2022-08-05T07:51:04.796Z,100433.63
2022-08-05T07:53:50.522Z,100434.72
2022-08-05T07:57:00.441Z,100427.47
2022-08-05T07:59:04.676Z,100431.03
2022-08-05T08:01:34.970Z,100433.28
2022-08-05T08:04:03.127Z,100434.56
2022-08-05T08:06:32.643Z,100427.37
2022-08-05T08:08:59.806Z,100416.66
2022-08-05T08:11:49.519Z,100421.28
2022-08-05T08:14:18.203Z,100428.97
2022-08-05T08:16:50.993Z,100425.72
2022-08-05T08:20:21.494Z,100424.06
2022-08-05T08:22:04.827Z,100420.06
2022-08-05T08:24:51.525Z,100414.06
2022-08-05T08:27:18.491Z,100406.44
2022-08-05T08:30:03.608Z,100418.19
2022-08-05T08:32:34.231Z,100419.72
2022-08-05T08:35:07.356Z,100411.50
2022-08-05T08:37:40.323Z,100414.06
2022-08-05T08:40:11.999Z,100419.44
2022-08-05T08:42:50.345Z,100417.09
2022-08-05T08:45:26.977Z,100420.56
2022-08-05T08:48:10.461Z,100410.66
2022-08-05T08:51:07.746Z,100416.03
2022-08-05T08:53:36.421Z,100409.69
2022-08-05T08:56:06.030Z,100411.28
2022-08-05T08:58:43.949Z,100409.09
2022-08-05T09:01:15.883Z,100412.03
2022-08-05T09:03:46.176Z,100402.03
2022-08-05T09:06:18.514Z,100401.50
2022-08-05T09:08:47.458Z,100388.84
2022-08-05T09:11:15.383Z,100390.25
2022-08-05T09:14:00.888Z,100370.16
2022-08-05T09:16:32.259Z,100378.16
2022-08-05T09:18:59.633Z,100373.94
2022-08-05T09:22:22.143Z,100381.34
2022-08-05T09:24:15.438Z,100378.91
2022-08-05T09:26:43.763Z,100369.69
2022-08-05T09:29:10.635Z,100366.56
2022-08-05T09:32:46.501Z,100363.66
2022-08-05T09:34:47.200Z,100360.78
2022-08-05T09:38:13.030Z,100358.72
2022-08-05T09:40:07.790Z,100360.88
2022-08-05T09:42:43.673Z,100359.94
2022-08-05T09:46:04.525Z,100352.84
2022-08-05T09:48:01.552Z,100356.19
2022-08-05T09:50:44.800Z,100352.56
2022-08-05T09:53:22.981Z,100350.06
2022-08-05T09:56:04.673Z,100355.13
2022-08-05T09:58:37.984Z,100352.50
2022-08-05T10:01:14.649Z,100341.25
2022-08-05T10:04:00.137Z,100336.25
2022-08-05T10:06:27.916Z,100345.00
2022-08-05T10:08:55.638Z,100348.25
2022-08-05T10:11:22.926Z,100348.16
2022-08-05T10:13:49.567Z,100332.84
2022-08-05T10:16:29.935Z,100334.84
2022-08-05T10:18:56.570Z,100328.25
2022-08-05T10:21:23.922Z,100333.09
2022-08-05T10:23:58.775Z,100332.72
2022-08-05T10:26:32.375Z,100321.78
2022-08-05T10:28:59.380Z,100329.94
2022-08-05T10:32:55.165Z,100322.56
2022-08-05T10:34:12.431Z,100320.62
2022-08-05T10:36:41.389Z,100316.19
2022-08-05T10:39:15.340Z,100315.56
2022-08-05T10:42:14.503Z,100301.41
2022-08-05T10:44:46.140Z,100310.97
2022-08-05T10:47:26.805Z,100305.19
2022-08-05T10:50:32.863Z,100284.25
2022-08-05T10:53:04.017Z,100297.97
2022-08-05T10:55:38.443Z,100287.31
2022-08-05T10:58:20.539Z,100294.87
2022-08-05T11:00:48.120Z,100286.94
2022-08-05T11:03:25.226Z,100291.13
2022-08-05T11:06:20.065Z,100286.06
2022-08-05T11:09:24.478Z,100285.97
2022-08-05T11:12:06.329Z,100277.22
2022-08-05T11:18:00.118Z,100284.47
2022-08-05T11:20:41.556Z,100280.69
2022-08-05T11:24:02.818Z,100279.69
2022-08-05T11:26:28.626Z,100281.25
2022-08-05T11:29:06.675Z,100273.72
2022-08-05T11:31:56.271Z,100274.41
2022-08-05T11:34:51.257Z,100273.25
2022-08-05T11:38:28.889Z,100273.16
2022-08-05T11:41:12.970Z,100269.03
2022-08-05T11:44:05.874Z,100263.03
2022-08-05T11:46:37.528Z,100271.56
2022-08-05T11:49:05.487Z,100267.41
2022-08-05T11:51:44.410Z,100264.22
2022-08-05T11:54:33.720Z,100262.94
2022-08-05T11:57:08.561Z,100260.00
